Time;durP1;ratioP1;P1;durP2;ratioP2;P2;SDS_P1;SDS_P2;PMS_P1;PMS_P2;Temp;Humidity;BMP_temperature;BMP_pressure;BME280_temperature;BME280_humidity;BME280_pressure;Samples;Min_cycle;Max_cycle;Signal;HPM_P1;HPM_P2
2021/01/23 00:00:18;;;;;;;;;;;;;;;21.71;42.60;99345.44;2065123;28;3918;-36
2021/01/23 00:01:19;;;;;;;;;;;;;;;21.67;42.42;99348.25;2067030;28;4160;-36
2021/01/23 00:02:20;;;;;;;;;;;;;;;21.68;42.57;99347.03;2064881;28;4082;-35
2021/01/23 00:03:21;;;;;;;;;;;;;;;21.67;42.71;99345.41;2065051;28;4116;-36
2021/01/23 00:04:22;;;;;;;;;;;;;;;21.68;42.79;99349.88;2069067;28;4213;-35
2021/01/23 00:05:22;;;;;;;;;;;;;;;21.70;42.70;99350.31;2065994;28;3919;-36
2021/01/23 00:06:23;;;;;;;;;;;;;;;21.70;42.81;99344.63;2064842;28;4055;-36
2021/01/23 00:07:24;;;;;;;;;;;;;;;21.68;42.83;99340.53;2068950;28;3928;-35
2021/01/23 00:08:24;;;;;;;;;;;;;;;21.66;42.80;99340.91;2069623;28;4062;-36
2021/01/23 00:09:25;;;;;;;;;;;;;;;21.64;43.01;99336.81;2067948;28;3881;-36
2021/01/23 00:10:26;;;;;;;;;;;;;;;21.61;42.99;99329.06;2067609;28;4059;-36
2021/01/23 00:11:27;;;;;;;;;;;;;;;21.62;43.05;99327.88;2068579;28;4036;-36
2021/01/23 00:12:27;;;;;;;;;;;;;;;21.61;43.03;99323.38;2068525;28;3903;-36
2021/01/23 00:13:28;;;;;;;;;;;;;;;21.61;43.13;99332.72;2068703;28;4191;-35
2021/01/23 00:14:29;;;;;;;;;;;;;;;21.62;42.99;99325.03;2067413;28;3884;-36
2021/01/23 00:15:29;;;;;;;;;;;;;;;21.62;42.94;99325.03;2064457;28;4034;-35
2021/01/23 00:16:30;;;;;;;;;;;;;;;21.61;43.03;99327.03;2064098;28;4043;-35
2021/01/23 00:17:31;;;;;;;;;;;;;;;21.58;43.09;99330.66;2069274;28;4115;-36
2021/01/23 00:18:32;;;;;;;;;;;;;;;21.62;43.02;99336.41;2068914;28;4068;-36
2021/01/23 00:19:33;;;;;;;;;;;;;;;21.66;42.96;99340.91;2068000;28;4033;-37
2021/01/23 00:20:33;;;;;;;;;;;;;;;21.67;43.11;99342.56;2068182;28;4360;-36
2021/01/23 00:21:34;;;;;;;;;;;;;;;21.69;43.01;99342.97;2068966;28;4062;-37
2021/01/23 00:22:35;;;;;;;;;;;;;;;21.69;43.10;99345.81;2068939;28;4976;-36
2021/01/23 00:23:36;;;;;;;;;;;;;;;21.67;43.16;99351.09;2068569;28;6240;-35
2021/01/23 00:24:37;;;;;;;;;;;;;;;21.65;43.28;99344.16;2065304;28;4051;-36
2021/01/23 00:25:38;;;;;;;;;;;;;;;21.62;43.12;99342.91;2068243;28;3875;-36
2021/01/23 00:26:38;;;;;;;;;;;;;;;21.60;43.42;99344.53;2069687;28;3861;-36
2021/01/23 00:27:40;;;;;;;;;;;;;;;21.59;43.31;99337.22;2067269;28;3825;-37
2021/01/23 00:28:40;;;;;;;;;;;;;;;21.54;43.10;99324.97;2069520;28;3849;-36
2021/01/23 00:29:41;;;;;;;;;;;;;;;21.52;43.51;99320.88;2064897;28;3862;-36
2021/01/23 00:30:42;;;;;;;;;;;;;;;21.54;43.45;99318.47;2069760;28;3995;-36
2021/01/23 00:31:43;;;;;;;;;;;;;;;21.57;43.44;99317.66;2069258;28;4033;-36
2021/01/23 00:32:44;;;;;;;;;;;;;;;21.54;43.61;99301.38;2068334;28;3878;-36
2021/01/23 00:33:44;;;;;;;;;;;;;;;21.53;43.57;99305.44;2068053;28;3806;-35
2021/01/23 00:34:45;;;;;;;;;;;;;;;21.57;43.57;99303.44;2067349;28;4202;-36
2021/01/23 00:35:46;;;;;;;;;;;;;;;21.57;43.69;99297.75;2068424;28;4457;-35
2021/01/23 00:36:47;;;;;;;;;;;;;;;21.53;43.57;99299.72;2068136;28;3960;-35
2021/01/23 00:37:48;;;;;;;;;;;;;;;21.55;43.54;99309.50;2075856;28;4862;-35
2021/01/23 00:38:49;;;;;;;;;;;;;;;21.59;43.88;99308.75;2070274;28;3944;-36
2021/01/23 00:39:50;;;;;;;;;;;;;;;21.60;43.98;99310.38;2066896;28;4025;-37
2021/01/23 00:40:51;;;;;;;;;;;;;;;21.59;44.00;99308.75;2077333;28;4070;-36
2021/01/23 00:41:51;;;;;;;;;;;;;;;21.60;44.22;99308.34;2069130;28;4136;-36
2021/01/23 00:42:52;;;;;;;;;;;;;;;21.59;44.13;99308.75;2068752;28;3908;-36
2021/01/23 00:43:53;;;;;;;;;;;;;;;21.63;44.56;99299.00;2068248;28;4282;-35
2021/01/23 00:44:53;;;;;;;;;;;;;;;21.82;44.90;99302.81;2064074;28;3875;-36
2021/01/23 00:45:54;;;;;;;;;;;;;;;21.78;44.28;99311.34;2066750;28;4004;-35
2021/01/23 00:46:55;;;;;;;;;;;;;;;21.73;44.21;99306.81;2069907;28;4043;-36
2021/01/23 00:47:56;;;;;;;;;;;;;;;21.71;44.41;99322.66;2065492;28;4140;-36
2021/01/23 00:48:57;;;;;;;;;;;;;;;21.69;44.28;99313.69;2067832;28;4009;-35
2021/01/23 00:49:58;;;;;;;;;;;;;;;21.67;44.20;99316.94;2065772;28;4061;-35
2021/01/23 00:50:59;;;;;;;;;;;;;;;21.69;44.24;99320.19;2067327;28;4061;-37
2021/01/23 00:51:59;;;;;;;;;;;;;;;21.67;44.27;99314.09;2066365;28;4090;-37
2021/01/23 00:53:00;;;;;;;;;;;;;;;21.66;44.12;99315.28;2068416;28;4238;-35
2021/01/23 00:54:01;;;;;;;;;;;;;;;21.61;44.23;99312.81;2069598;28;3878;-36
2021/01/23 00:55:02;;;;;;;;;;;;;;;21.63;44.24;99310.38;2064647;28;4178;-36
2021/01/23 00:56:03;;;;;;;;;;;;;;;21.62;44.24;99319.34;2065168;28;3919;-35
2021/01/23 00:57:04;;;;;;;;;;;;;;;21.59;44.35;99315.25;2068293;28;4139;-36
2021/01/23 00:58:04;;;;;;;;;;;;;;;21.66;44.29;99320.16;2068090;28;4042;-36
2021/01/23 00:59:05;;;;;;;;;;;;;;;21.67;44.38;99321.78;2069552;28;4020;-35
2021/01/23 01:00:06;;;;;;;;;;;;;;;21.62;44.64;99320.16;2064879;28;3885;-36
2021/01/23 01:01:08;;;;;;;;;;;;;;;21.60;44.52;99322.56;2066946;28;3885;-36
2021/01/23 01:02:09;;;;;;;;;;;;;;;21.62;44.70;99322.19;2068831;28;4227;-36
2021/01/23 01:03:10;;;;;;;;;;;;;;;21.61;44.47;99317.69;2068160;28;4059;-36
2021/01/23 01:04:11;;;;;;;;;;;;;;;21.60;44.72;99321.75;2062743;28;4065;-36
2021/01/23 01:05:12;;;;;;;;;;;;;;;21.58;44.59;99330.66;2066974;28;4069;-36
2021/01/23 01:06:12;;;;;;;;;;;;;;;21.57;44.66;99326.19;2066763;28;4018;-35
2021/01/23 01:07:14;;;;;;;;;;;;;;;21.54;45.36;99327.81;2068114;28;4024;-36
2021/01/23 01:08:15;;;;;;;;;;;;;;;21.58;44.80;99327.81;2067442;28;3878;-36
2021/01/23 01:09:16;;;;;;;;;;;;;;;21.55;44.82;99328.63;2063954;28;4034;-36
2021/01/23 01:10:16;;;;;;;;;;;;;;;21.59;44.54;99331.50;2067953;28;4150;-36
2021/01/23 01:11:17;;;;;;;;;;;;;;;21.57;44.71;99329.88;2064915;28;4072;-36
2021/01/23 01:12:18;;;;;;;;;;;;;;;21.57;44.56;99331.91;2068004;28;4030;-35
2021/01/23 01:13:19;;;;;;;;;;;;;;;21.54;44.54;99329.84;2068245;28;4048;-36
2021/01/23 01:14:19;;;;;;;;;;;;;;;21.53;44.45;99328.19;2068188;28;4061;-36
2021/01/23 01:15:20;;;;;;;;;;;;;;;21.58;44.53;99333.53;2063855;28;4074;-35
2021/01/23 01:16:21;;;;;;;;;;;;;;;21.66;44.78;99326.69;2067903;28;4024;-36
2021/01/23 01:17:21;;;;;;;;;;;;;;;21.69;44.38;99328.72;2066243;28;3865;-36
2021/01/23 01:18:22;;;;;;;;;;;;;;;21.66;44.66;99332.38;2067703;28;4036;-36
2021/01/23 01:19:24;;;;;;;;;;;;;;;21.64;44.82;99325.44;2067688;28;4047;-36
2021/01/23 01:20:24;;;;;;;;;;;;;;;21.62;44.68;99325.84;2065898;28;4101;-34
2021/01/23 01:21:25;;;;;;;;;;;;;;;21.60;44.71;99318.91;2064648;28;4661;-35
2021/01/23 01:22:28;;;;;;;;;;;;;;;21.58;44.77;99319.28;2067355;28;3859;-36
2021/01/23 01:23:29;;;;;;;;;;;;;;;21.59;44.82;99322.97;2067936;28;4036;-35
2021/01/23 01:24:29;;;;;;;;;;;;;;;21.55;44.78;99322.94;2069014;28;3958;-36
2021/01/23 01:25:30;;;;;;;;;;;;;;;21.54;44.78;99318.47;2066466;28;4033;-36
2021/01/23 01:26:31;;;;;;;;;;;;;;;21.53;44.84;99316.81;2068137;28;3886;-36
2021/01/23 01:27:31;;;;;;;;;;;;;;;21.53;44.83;99311.13;2066078;28;4022;-36
2021/01/23 01:28:32;;;;;;;;;;;;;;;21.52;45.15;99320.88;2067697;28;4200;-35
2021/01/23 01:29:33;;;;;;;;;;;;;;;21.52;45.06;99318.03;2069760;28;4086;-35
2021/01/23 01:30:34;;;;;;;;;;;;;;;21.53;45.25;99325.34;2069462;28;3926;-37
2021/01/23 01:31:35;;;;;;;;;;;;;;;21.52;45.45;99318.03;2067298;28;4012;-35
2021/01/23 01:32:36;;;;;;;;;;;;;;;21.53;45.21;99311.97;2068945;28;4043;-35
2021/01/23 01:33:38;;;;;;;;;;;;;;;21.53;45.60;99319.66;2064274;28;3851;-34
2021/01/23 01:34:38;;;;;;;;;;;;;;;21.59;45.75;99318.09;2068035;28;3835;-35
2021/01/23 01:35:39;;;;;;;;;;;;;;;21.54;45.73;99318.47;2067066;28;3848;-36
2021/01/23 01:36:40;;;;;;;;;;;;;;;21.58;45.78;99319.28;2069146;28;3907;-35
2021/01/23 01:37:42;;;;;;;;;;;;;;;21.58;45.34;99319.28;2068933;28;4040;-36
2021/01/23 01:38:43;;;;;;;;;;;;;;;21.59;45.82;99315.25;2064296;28;3993;-36
2021/01/23 01:39:44;;;;;;;;;;;;;;;21.58;45.81;99319.28;2069089;28;4010;-35
2021/01/23 01:40:45;;;;;;;;;;;;;;;21.59;45.68;99320.94;2067559;28;4012;-37
2021/01/23 01:41:45;;;;;;;;;;;;;;;21.58;45.67;99313.59;2068400;28;3856;-36
2021/01/23 01:42:46;;;;;;;;;;;;;;;21.60;45.87;99316.88;2068987;28;3813;-37
2021/01/23 01:43:47;;;;;;;;;;;;;;;21.60;46.06;99314.03;2066732;28;3949;-35
2021/01/23 01:44:47;;;;;;;;;;;;;;;21.57;45.94;99314.81;2066392;28;4767;-36
2021/01/23 01:45:48;;;;;;;;;;;;;;;21.52;45.47;99316.00;2065970;28;4035;-36
2021/01/23 01:46:49;;;;;;;;;;;;;;;21.57;45.67;99318.47;2068393;28;4058;-36
2021/01/23 01:47:50;;;;;;;;;;;;;;;21.54;45.86;99315.63;2068927;28;3910;-36
2021/01/23 01:48:51;;;;;;;;;;;;;;;21.54;45.79;99318.47;2067609;28;4461;-36
2021/01/23 01:49:52;;;;;;;;;;;;;;;21.53;45.59;99314.81;2067488;28;3894;-36
2021/01/23 01:50:53;;;;;;;;;;;;;;;21.54;45.98;99319.28;2068245;28;4053;-35
2021/01/23 01:51:54;;;;;;;;;;;;;;;21.51;45.79;99320.06;2067493;28;4013;-36
2021/01/23 01:52:54;;;;;;;;;;;;;;;21.51;45.92;99320.06;2068863;28;4184;-36
2021/01/23 01:53:55;;;;;;;;;;;;;;;21.50;46.05;99315.59;2067123;28;3906;-36
2021/01/23 01:54:56;;;;;;;;;;;;;;;21.48;45.90;99312.31;2065309;28;4036;-36
2021/01/23 01:55:56;;;;;;;;;;;;;;;21.47;45.64;99307.00;2066295;28;4082;-35
2021/01/23 01:56:57;;;;;;;;;;;;;;;21.47;46.07;99309.84;2069527;28;3859;-36
2021/01/23 01:57:58;;;;;;;;;;;;;;;21.49;45.88;99308.25;2069098;28;5269;-36
2021/01/23 01:58:59;;;;;;;;;;;;;;;21.50;45.96;99314.75;2067121;28;3898;-36
2021/01/23 02:00:00;;;;;;;;;;;;;;;21.50;46.03;99314.75;2064720;28;3975;-35
2021/01/23 02:01:01;;;;;;;;;;;;;;;21.51;46.34;99317.22;2068914;28;4060;-35
2021/01/23 02:02:02;;;;;;;;;;;;;;;21.59;46.17;99325.81;2067881;28;3916;-36
2021/01/23 02:03:03;;;;;;;;;;;;;;;21.57;46.34;99323.34;2068133;28;4076;-36
2021/01/23 02:04:04;;;;;;;;;;;;;;;21.52;46.78;99313.16;2067174;28;3903;-36
2021/01/23 02:05:05;;;;;;;;;;;;;;;21.53;46.46;99326.19;2063776;28;4206;-35
2021/01/23 02:06:06;;;;;;;;;;;;;;;21.54;46.04;99322.13;2063639;28;4115;-36
2021/01/23 02:07:06;;;;;;;;;;;;;;;21.59;46.34;99322.97;2069634;28;3850;-35
2021/01/23 02:08:07;;;;;;;;;;;;;;;21.57;46.31;99314.81;2068160;28;3906;-36
2021/01/23 02:09:09;;;;;;;;;;;;;;;21.54;46.66;99313.59;2067183;28;4034;-36
2021/01/23 02:10:10;;;;;;;;;;;;;;;21.52;46.54;99318.84;2067635;28;4159;-35
2021/01/23 02:11:11;;;;;;;;;;;;;;;21.53;46.57;99311.13;2068461;28;4044;-36
2021/01/23 02:12:11;;;;;;;;;;;;;;;21.53;46.75;99311.13;2069215;28;3995;-35
2021/01/23 02:13:12;;;;;;;;;;;;;;;21.53;46.61;99317.66;2064616;28;4045;-34
2021/01/23 02:14:14;;;;;;;;;;;;;;;21.51;46.64;99308.69;2068897;28;4071;-37
2021/01/23 02:15:15;;;;;;;;;;;;;;;21.52;46.96;99313.16;2065367;28;4043;-35
2021/01/23 02:16:15;;;;;;;;;;;;;;;21.51;47.05;99311.53;2066149;28;4011;-35
2021/01/23 02:17:16;;;;;;;;;;;;;;;21.51;47.12;99314.38;2068971;28;4198;-36
2021/01/23 02:18:17;;;;;;;;;;;;;;;21.56;47.11;99311.16;2068025;28;3906;-35
2021/01/23 02:19:18;;;;;;;;;;;;;;;21.54;47.10;99307.88;2069300;28;4057;-35
2021/01/23 02:20:19;;;;;;;;;;;;;;;21.54;47.29;99312.75;2066263;28;4048;-35
2021/01/23 02:21:19;;;;;;;;;;;;;;;21.58;47.42;99307.91;2066004;28;3929;-36
2021/01/23 02:22:20;;;;;;;;;;;;;;;21.58;47.76;99313.59;2067199;28;4093;-34
2021/01/23 02:23:21;;;;;;;;;;;;;;;21.58;47.54;99310.75;2067768;28;4002;-37
2021/01/23 02:24:22;;;;;;;;;;;;;;;21.70;47.42;99307.63;2067407;28;3878;-35
2021/01/23 02:25:23;;;;;;;;;;;;;;;21.70;47.50;99304.75;2064693;28;3774;-36
2021/01/23 02:26:23;;;;;;;;;;;;;;;21.65;47.72;99301.47;2068770;28;4045;-34
2021/01/23 02:27:24;;;;;;;;;;;;;;;21.60;47.64;99308.34;2064436;28;3854;-36
2021/01/23 02:28:25;;;;;;;;;;;;;;;21.53;47.32;99303.41;2065190;28;4096;-36
2021/01/23 02:29:26;;;;;;;;;;;;;;;21.53;47.60;99300.56;2066658;28;4059;-35
2021/01/23 02:30:26;;;;;;;;;;;;;;;21.51;47.54;99302.19;2061903;28;4271;-35
2021/01/23 02:31:30;;;;;;;;;;;;;;;21.53;47.28;99296.88;2066788;28;3934;-36
2021/01/23 02:32:31;;;;;;;;;;;;;;;21.53;47.38;99306.25;2067190;28;3927;-36
2021/01/23 02:33:32;;;;;;;;;;;;;;;21.51;47.33;99307.88;2067275;28;4057;-36
2021/01/23 02:34:33;;;;;;;;;;;;;;;21.51;47.24;99310.72;2068622;28;4066;-35
2021/01/23 02:35:33;;;;;;;;;;;;;;;21.48;47.19;99312.31;2062308;28;3864;-35
2021/01/23 02:36:37;;;;;;;;;;;;;;;21.47;47.25;99318.38;2066135;28;3755;-36
2021/01/23 02:37:38;;;;;;;;;;;;;;;21.46;46.93;99311.06;2066895;28;3992;-35
2021/01/23 02:38:39;;;;;;;;;;;;;;;21.44;47.00;99320.00;2068806;28;3772;-36
2021/01/23 02:39:40;;;;;;;;;;;;;;;21.44;46.94;99314.28;2065792;28;4099;-36
2021/01/23 02:40:40;;;;;;;;;;;;;;;21.46;46.96;99316.75;2068264;28;4030;-35
2021/01/23 02:41:43;;;;;;;;;;;;;;;21.48;46.91;99318.00;2068499;28;4006;-35
2021/01/23 02:42:44;;;;;;;;;;;;;;;21.47;47.11;99319.19;2066392;28;3835;-35
2021/01/23 02:43:44;;;;;;;;;;;;;;;21.47;46.76;99319.19;2064544;28;4032;-35
2021/01/23 02:44:45;;;;;;;;;;;;;;;21.46;46.81;99311.06;2068123;28;3821;-35
2021/01/23 02:45:46;;;;;;;;;;;;;;;21.44;46.95;99314.28;2065411;28;3999;-36
2021/01/23 02:46:46;;;;;;;;;;;;;;;21.46;47.02;99316.75;2066946;28;3823;-36
2021/01/23 02:47:47;;;;;;;;;;;;;;;21.45;46.88;99315.94;2067709;28;4494;-35
2021/01/23 02:48:48;;;;;;;;;;;;;;;21.44;46.84;99313.47;2066964;28;4071;-36
2021/01/23 02:49:49;;;;;;;;;;;;;;;21.46;46.65;99316.75;2068444;28;4363;-36
2021/01/23 02:50:50;;;;;;;;;;;;;;;21.43;46.91;99320.41;2067303;28;3906;-36
2021/01/23 02:51:50;;;;;;;;;;;;;;;21.42;46.81;99310.22;2064674;28;4171;-36
2021/01/23 02:52:51;;;;;;;;;;;;;;;21.41;46.67;99315.09;2067790;28;4066;-37
2021/01/23 02:53:52;;;;;;;;;;;;;;;21.41;46.77;99311.44;2068731;28;4035;-36
2021/01/23 02:54:53;;;;;;;;;;;;;;;21.41;46.85;99308.59;2066754;28;4028;-35
2021/01/23 02:55:53;;;;;;;;;;;;;;;21.41;46.48;99309.41;2066094;28;3930;-36
2021/01/23 02:56:54;;;;;;;;;;;;;;;21.45;46.67;99309.41;2067341;28;3906;-36
2021/01/23 02:57:55;;;;;;;;;;;;;;;21.45;46.63;99312.25;2065726;28;4038;-35
2021/01/23 02:58:55;;;;;;;;;;;;;;;21.44;46.57;99308.59;2065439;28;3915;-36
2021/01/23 02:59:56;;;;;;;;;;;;;;;21.44;46.42;99307.78;2067961;28;3872;-36
2021/01/23 03:00:57;;;;;;;;;;;;;;;21.45;46.55;99303.72;2067473;28;4275;-35
2021/01/23 03:01:58;;;;;;;;;;;;;;;21.44;46.49;99302.91;2068974;28;4038;-35
2021/01/23 03:02:59;;;;;;;;;;;;;;;21.45;46.65;99303.72;2068953;28;3881;-37
2021/01/23 03:03:59;;;;;;;;;;;;;;;21.45;46.40;99300.88;2065087;28;3901;-36
2021/01/23 03:05:03;;;;;;;;;;;;;;;21.43;46.43;99300.47;2063809;28;4048;-36
2021/01/23 03:06:04;;;;;;;;;;;;;;;21.42;46.26;99302.53;2066124;28;4050;-36
2021/01/23 03:07:04;;;;;;;;;;;;;;;21.43;46.34;99294.78;2065540;28;4051;-35
2021/01/23 03:08:05;;;;;;;;;;;;;;;21.44;46.21;99304.94;2068576;28;3966;-36
2021/01/23 03:09:06;;;;;;;;;;;;;;;21.45;46.50;99298.03;2063809;28;3897;-35
2021/01/23 03:10:09;;;;;;;;;;;;;;;21.45;46.18;99301.72;2067816;28;4328;-36
2021/01/23 03:11:10;;;;;;;;;;;;;;;21.47;46.29;99301.31;2067021;28;6361;-36
2021/01/23 03:12:11;;;;;;;;;;;;;;;21.45;46.37;99301.72;2068376;28;3859;-36
2021/01/23 03:13:11;;;;;;;;;;;;;;;21.46;46.21;99299.69;2068128;28;4034;-35
2021/01/23 03:14:13;;;;;;;;;;;;;;;21.45;46.19;99301.72;2065062;28;3796;-37
2021/01/23 03:15:14;;;;;;;;;;;;;;;21.45;46.14;99303.72;2064573;28;3781;-37
2021/01/23 03:16:15;;;;;;;;;;;;;;;21.47;46.33;99301.31;2067300;28;4130;-36
2021/01/23 03:17:16;;;;;;;;;;;;;;;21.45;46.44;99303.72;2065799;28;3862;-36
2021/01/23 03:18:17;;;;;;;;;;;;;;;21.42;46.17;99304.50;2065182;28;3894;-37
2021/01/23 03:19:18;;;;;;;;;;;;;;;21.43;46.31;99303.31;2062648;28;4035;-36
2021/01/23 03:20:19;;;;;;;;;;;;;;;21.45;46.02;99304.56;2066015;28;4073;-36
2021/01/23 03:21:20;;;;;;;;;;;;;;;21.45;46.23;99290.34;2068577;28;4040;-37
2021/01/23 03:22:20;;;;;;;;;;;;;;;21.43;46.10;99301.28;2067776;28;4220;-37
2021/01/23 03:23:21;;;;;;;;;;;;;;;21.44;46.48;99302.09;2066313;28;4196;-36
2021/01/23 03:24:22;;;;;;;;;;;;;;;21.43;46.32;99303.31;2066618;28;4048;-37
2021/01/23 03:25:23;;;;;;;;;;;;;;;21.41;46.49;99300.84;2067391;28;4027;-38
2021/01/23 03:26:23;;;;;;;;;;;;;;;21.39;46.29;99297.59;2068822;28;3877;-37
2021/01/23 03:27:24;;;;;;;;;;;;;;;21.41;46.31;99302.91;2065420;28;3902;-36
2021/01/23 03:28:25;;;;;;;;;;;;;;;21.40;46.35;99304.94;2066080;28;4056;-37
2021/01/23 03:29:26;;;;;;;;;;;;;;;21.40;46.45;99306.97;2068863;28;3887;-36
2021/01/23 03:30:27;;;;;;;;;;;;;;;21.41;46.35;99311.44;2067366;28;3863;-36
2021/01/23 03:31:27;;;;;;;;;;;;;;;21.40;46.32;99301.28;2067125;28;4040;-36
2021/01/23 03:32:28;;;;;;;;;;;;;;;21.41;46.43;99306.56;2066011;28;4070;-35
2021/01/23 03:33:29;;;;;;;;;;;;;;;21.41;46.35;99300.06;2065811;28;4022;-35
2021/01/23 03:34:30;;;;;;;;;;;;;;;21.41;46.43;99306.56;2065095;28;4041;-36
2021/01/23 03:35:30;;;;;;;;;;;;;;;21.40;46.22;99299.25;2062844;28;4039;-36
2021/01/23 03:36:31;;;;;;;;;;;;;;;21.40;46.18;99301.28;2067534;28;4091;-36
2021/01/23 03:37:32;;;;;;;;;;;;;;;21.38;46.39;99301.66;2067320;28;4004;-36
2021/01/23 03:38:32;;;;;;;;;;;;;;;21.40;46.26;99302.09;2067012;28;3939;-37
2021/01/23 03:39:33;;;;;;;;;;;;;;;21.40;46.28;99301.28;2067279;28;3987;-37
2021/01/23 03:40:34;;;;;;;;;;;;;;;21.41;46.41;99300.84;2066913;28;4229;-36
2021/01/23 03:41:35;;;;;;;;;;;;;;;21.41;46.24;99300.06;2067381;28;4004;-37
2021/01/23 03:42:35;;;;;;;;;;;;;;;21.40;46.33;99302.09;2068372;28;4037;-36
2021/01/23 03:43:36;;;;;;;;;;;;;;;21.42;46.29;99295.97;2067811;28;3833;-37
2021/01/23 03:44:37;;;;;;;;;;;;;;;21.45;46.50;99293.19;2067959;28;4102;-37
2021/01/23 03:45:38;;;;;;;;;;;;;;;21.46;46.27;99291.97;2061814;28;4751;-35
2021/01/23 03:46:39;;;;;;;;;;;;;;;21.48;46.33;99298.09;2067912;28;4040;-36
2021/01/23 03:47:39;;;;;;;;;;;;;;;21.52;46.08;99292.41;2067271;28;3959;-37
2021/01/23 03:48:40;;;;;;;;;;;;;;;21.50;46.23;99297.69;2066356;28;4380;-36
2021/01/23 03:49:41;;;;;;;;;;;;;;;21.48;46.14;99297.28;2065338;28;4043;-36
2021/01/23 03:50:42;;;;;;;;;;;;;;;21.48;46.36;99300.94;2064829;28;3836;-36
2021/01/23 03:51:42;;;;;;;;;;;;;;;21.49;46.17;99293.22;2064608;28;3923;-36
2021/01/23 03:52:43;;;;;;;;;;;;;;;21.47;46.00;99295.63;2066837;28;4019;-35
2021/01/23 03:53:44;;;;;;;;;;;;;;;21.50;46.09;99294.84;2066499;28;4072;-36
2021/01/23 03:54:45;;;;;;;;;;;;;;;21.49;46.17;99299.72;2068670;28;3855;-36
2021/01/23 03:55:45;;;;;;;;;;;;;;;21.50;46.05;99294.84;2062503;28;4055;-35
2021/01/23 03:56:46;;;;;;;;;;;;;;;21.50;46.07;99292.00;2065275;28;3862;-36
2021/01/23 03:57:47;;;;;;;;;;;;;;;21.51;46.03;99290.78;2066363;28;3967;-36
2021/01/23 03:58:48;;;;;;;;;;;;;;;21.52;46.02;99292.41;2075586;28;4009;-35
2021/01/23 03:59:48;;;;;;;;;;;;;;;21.52;46.11;99298.09;2074395;28;3899;-37
2021/01/23 04:00:49;;;;;;;;;;;;;;;21.52;46.00;99284.69;2076842;28;3960;-37
2021/01/23 04:01:50;;;;;;;;;;;;;;;21.50;45.91;99294.84;2076490;28;3971;-35
2021/01/23 04:02:51;;;;;;;;;;;;;;;21.50;46.04;99289.13;2072863;28;5142;-35
2021/01/23 04:03:52;;;;;;;;;;;;;;;21.50;45.91;99297.69;2076066;28;3898;-35
2021/01/23 04:04:52;;;;;;;;;;;;;;;21.47;46.01;99285.06;2074996;28;3876;-36
2021/01/23 04:05:53;;;;;;;;;;;;;;;21.47;46.18;99289.94;2074387;28;3926;-37
2021/01/23 04:06:54;;;;;;;;;;;;;;;21.47;45.92;99293.59;2075305;28;4117;-35
2021/01/23 04:07:54;;;;;;;;;;;;;;;21.47;45.83;99284.25;2073801;28;4025;-35
2021/01/23 04:08:55;;;;;;;;;;;;;;;21.46;46.04;99289.13;2075455;28;3922;-37
2021/01/23 04:09:56;;;;;;;;;;;;;;;21.47;46.31;99289.94;2076505;28;4164;-36
2021/01/23 04:10:57;;;;;;;;;;;;;;;21.49;46.25;99287.53;2077155;28;3889;-37
2021/01/23 04:11:57;;;;;;;;;;;;;;;21.47;46.14;99290.75;2076109;28;4058;-36
2021/01/23 04:12:58;;;;;;;;;;;;;;;21.50;46.11;99289.97;2072598;28;4047;-35
2021/01/23 04:13:59;;;;;;;;;;;;;;;21.50;46.10;99292.84;2075244;28;4158;-35
2021/01/23 04:14:59;;;;;;;;;;;;;;;21.50;46.07;99292.84;2072257;28;4275;-36
2021/01/23 04:16:00;;;;;;;;;;;;;;;21.51;46.11;99290.78;2060597;28;4062;-35
2021/01/23 04:17:01;;;;;;;;;;;;;;;21.52;46.04;99301.78;2068448;28;4280;-36
2021/01/23 04:18:03;;;;;;;;;;;;;;;21.50;45.85;99292.00;2064344;28;4225;-36
2021/01/23 04:19:03;;;;;;;;;;;;;;;21.50;46.14;99300.53;2068435;28;3907;-36
2021/01/23 04:20:04;;;;;;;;;;;;;;;21.48;45.90;99294.44;2066275;28;3878;-36
2021/01/23 04:21:05;;;;;;;;;;;;;;;21.47;45.90;99298.47;2068254;28;3961;-36
2021/01/23 04:22:06;;;;;;;;;;;;;;;21.49;46.04;99293.22;2068512;28;4164;-35
2021/01/23 04:23:07;;;;;;;;;;;;;;;21.52;45.85;99298.09;2064325;28;4041;-35
2021/01/23 04:24:08;;;;;;;;;;;;;;;21.52;45.88;99292.41;2065804;28;3900;-36
2021/01/23 04:25:08;;;;;;;;;;;;;;;21.51;45.90;99293.63;2065107;28;3885;-36
2021/01/23 04:26:09;;;;;;;;;;;;;;;21.51;46.11;99294.44;2064523;28;4136;-36
2021/01/23 04:27:10;;;;;;;;;;;;;;;21.58;45.99;99293.69;2067423;28;4049;-36
2021/01/23 04:28:15;;;;;;;;;;;;;;;21.62;45.86;99305.13;2067107;28;3862;-36
2021/01/23 04:29:16;;;;;;;;;;;;;;;21.60;45.74;99296.94;2068109;28;4014;-36
2021/01/23 04:30:17;;;;;;;;;;;;;;;21.54;45.92;99299.34;2066550;28;4393;-36
2021/01/23 04:31:18;;;;;;;;;;;;;;;21.54;45.84;99293.66;2068239;28;3896;-36
2021/01/23 04:32:18;;;;;;;;;;;;;;;21.57;45.82;99292.88;2068392;28;4040;-35
2021/01/23 04:33:19;;;;;;;;;;;;;;;21.52;45.90;99293.22;2065282;28;4061;-37
2021/01/23 04:34:20;;;;;;;;;;;;;;;21.53;45.90;99299.72;2064015;28;4028;-36
2021/01/23 04:35:21;;;;;;;;;;;;;;;21.53;45.69;99294.88;2062709;28;4016;-37
2021/01/23 04:36:21;;;;;;;;;;;;;;;21.50;45.94;99295.69;2066835;28;3864;-37
2021/01/23 04:37:22;;;;;;;;;;;;;;;21.49;45.79;99296.88;2065030;28;3888;-35
2021/01/23 04:38:23;;;;;;;;;;;;;;;21.50;46.04;99289.13;2067995;28;3881;-37
2021/01/23 04:39:24;;;;;;;;;;;;;;;21.50;46.10;99289.13;2067220;28;4645;-36
2021/01/23 04:40:24;;;;;;;;;;;;;;;21.48;45.73;99297.28;2066782;28;4843;-37
2021/01/23 04:41:25;;;;;;;;;;;;;;;21.47;46.00;99302.13;2065662;28;3862;-36
2021/01/23 04:42:26;;;;;;;;;;;;;;;21.48;46.01;99297.28;2068470;28;4040;-36
2021/01/23 04:43:27;;;;;;;;;;;;;;;21.49;45.83;99299.72;2067382;28;4100;-37
2021/01/23 04:44:27;;;;;;;;;;;;;;;21.51;45.93;99297.28;2067304;28;3884;-36
2021/01/23 04:45:28;;;;;;;;;;;;;;;21.50;46.02;99301.38;2064926;28;3911;-35
2021/01/23 04:46:29;;;;;;;;;;;;;;;21.49;45.91;99299.72;2068229;28;4067;-36
2021/01/23 04:47:29;;;;;;;;;;;;;;;21.50;45.92;99295.69;2069403;28;4050;-35
2021/01/23 04:48:30;;;;;;;;;;;;;;;21.49;45.87;99302.56;2066847;28;4085;-36
2021/01/23 04:49:31;;;;;;;;;;;;;;;21.49;45.91;99298.91;2069408;28;4036;-35
2021/01/23 04:50:32;;;;;;;;;;;;;;;21.48;45.90;99298.09;2070224;28;4019;-36
2021/01/23 04:51:33;;;;;;;;;;;;;;;21.49;45.90;99299.72;2068638;28;3860;-36
2021/01/23 04:52:34;;;;;;;;;;;;;;;21.51;46.23;99296.50;2069883;28;4081;-36
2021/01/23 04:53:35;;;;;;;;;;;;;;;21.53;46.01;99300.56;2069148;28;4025;-35
2021/01/23 04:54:36;;;;;;;;;;;;;;;21.52;46.46;99298.09;2067914;28;4105;-36
2021/01/23 04:55:37;;;;;;;;;;;;;;;21.54;46.16;99284.31;2065748;28;4096;-36
2021/01/23 04:56:38;;;;;;;;;;;;;;;21.52;46.23;99292.41;2069074;28;4360;-36
2021/01/23 04:57:38;;;;;;;;;;;;;;;21.51;46.15;99293.63;2068758;28;3775;-36
2021/01/23 04:58:39;;;;;;;;;;;;;;;21.51;46.05;99291.59;2067611;28;4018;-36
2021/01/23 04:59:40;;;;;;;;;;;;;;;21.52;45.82;99292.41;2068942;28;4072;-36
2021/01/23 05:00:41;;;;;;;;;;;;;;;21.53;45.89;99296.88;2069199;28;3864;-36
2021/01/23 05:01:41;;;;;;;;;;;;;;;21.52;46.09;99300.94;2069158;28;4005;-35
2021/01/23 05:02:42;;;;;;;;;;;;;;;21.53;46.33;99299.72;2069417;28;4223;-36
2021/01/23 05:03:43;;;;;;;;;;;;;;;21.51;46.13;99297.28;2065653;28;4026;-36
2021/01/23 05:04:44;;;;;;;;;;;;;;;21.52;46.06;99298.09;2066686;28;3981;-35
2021/01/23 05:05:45;;;;;;;;;;;;;;;21.52;46.06;99298.09;2067762;28;3830;-35
2021/01/23 05:06:45;;;;;;;;;;;;;;;21.54;46.14;99296.50;2066794;28;4029;-35
2021/01/23 05:07:46;;;;;;;;;;;;;;;21.53;46.04;99294.88;2069005;28;4200;-35
2021/01/23 05:08:47;;;;;;;;;;;;;;;21.57;45.90;99292.88;2070087;28;4001;-35
2021/01/23 05:09:48;;;;;;;;;;;;;;;21.57;46.10;99287.19;2069100;28;4742;-34
2021/01/23 05:10:48;;;;;;;;;;;;;;;21.60;45.95;99290.44;2068723;28;3973;-35
2021/01/23 05:11:49;;;;;;;;;;;;;;;21.55;46.11;99288.78;2067438;28;3989;-35
2021/01/23 05:12:50;;;;;;;;;;;;;;;21.54;45.88;99284.31;2066601;28;4056;-35
2021/01/23 05:13:51;;;;;;;;;;;;;;;21.59;46.01;99291.69;2066077;28;3874;-36
2021/01/23 05:14:52;;;;;;;;;;;;;;;21.62;45.97;99288.03;2066551;28;4086;-36
2021/01/23 05:15:52;;;;;;;;;;;;;;;21.61;45.99;99287.19;2069551;28;4072;-36
2021/01/23 05:16:53;;;;;;;;;;;;;;;21.64;45.96;99288.44;2068717;28;4035;-34
2021/01/23 05:17:54;;;;;;;;;;;;;;;21.61;45.90;99284.34;2068855;28;3789;-35
2021/01/23 05:18:55;;;;;;;;;;;;;;;21.61;45.99;99290.03;2068515;28;4136;-35
2021/01/23 05:19:56;;;;;;;;;;;;;;;21.58;45.82;99285.13;2069782;28;4051;-35
2021/01/23 05:20:57;;;;;;;;;;;;;;;21.57;46.13;99284.34;2068586;28;3940;-36